createdAt,value
2022-07-26T00:02:02.697Z,60.87
2022-07-26T00:04:29.597Z,60.68
2022-07-26T00:06:57.725Z,61.01
2022-07-26T00:09:24.494Z,60.55
2022-07-26T00:11:51.911Z,60.87
2022-07-26T00:14:18.714Z,60.51
2022-07-26T00:16:45.486Z,60.08
2022-07-26T00:19:12.338Z,59.99
2022-07-26T00:21:40.763Z,60.50
2022-07-26T00:24:09.710Z,60.64
2022-07-26T00:26:36.425Z,61.47
2022-07-26T00:29:04.965Z,61.78
2022-07-26T00:31:32.448Z,62.18
2022-07-26T00:33:59.187Z,61.96
2022-07-26T00:36:27.495Z,61.94
2022-07-26T00:38:54.202Z,62.18
2022-07-26T00:41:22.281Z,62.20
2022-07-26T00:43:56.739Z,61.89
2022-07-26T00:46:23.718Z,61.94
2022-07-26T00:48:50.699Z,61.83
2022-07-26T00:51:17.695Z,62.08
2022-07-26T00:53:45.603Z,62.20
2022-07-26T00:56:14.484Z,62.16
2022-07-26T00:58:42.366Z,62.29
2022-07-26T01:01:11.670Z,62.82
2022-07-26T01:03:39.717Z,62.95
2022-07-26T01:06:07.402Z,63.39
2022-07-26T01:08:34.353Z,63.48
2022-07-26T01:11:01.149Z,63.36
2022-07-26T01:13:30.728Z,63.14
2022-07-26T01:16:03.503Z,63.35
2022-07-26T01:18:30.129Z,63.19
2022-07-26T01:21:01.913Z,63.12
2022-07-26T01:23:41.859Z,63.29
2022-07-26T01:26:08.636Z,62.83
2022-07-26T01:28:37.403Z,63.23
2022-07-26T01:31:04.203Z,62.61
2022-07-26T01:33:30.979Z,62.79
2022-07-26T01:35:58.168Z,62.50
2022-07-26T01:38:25.087Z,62.34
2022-07-26T01:40:53.416Z,61.92
2022-07-26T01:43:20.135Z,62.18
2022-07-26T01:45:47.345Z,61.74
2022-07-26T01:48:14.223Z,61.08
2022-07-26T01:50:41.407Z,60.94
2022-07-26T01:53:08.253Z,60.92
2022-07-26T01:55:35.194Z,60.81
2022-07-26T01:58:05.547Z,60.94
2022-07-26T02:00:32.654Z,60.58
2022-07-26T02:02:59.691Z,60.42
2022-07-26T02:05:26.667Z,60.29
2022-07-26T02:07:53.482Z,60.09
2022-07-26T02:10:20.264Z,60.14
2022-07-26T02:12:48.527Z,59.85
2022-07-26T02:15:16.835Z,60.02
2022-07-26T02:17:43.586Z,59.93
2022-07-26T02:20:10.643Z,60.41
2022-07-26T02:22:37.348Z,60.78
2022-07-26T02:25:05.473Z,61.12
2022-07-26T02:27:32.735Z,61.39
2022-07-26T02:29:59.418Z,61.68
2022-07-26T02:32:27.427Z,61.84
2022-07-26T02:34:54.226Z,61.94
2022-07-26T02:37:20.971Z,61.80
2022-07-26T02:39:47.630Z,61.64
2022-07-26T02:42:14.740Z,61.58
2022-07-26T02:44:41.794Z,61.47
2022-07-26T02:47:08.483Z,61.44
2022-07-26T02:49:40.796Z,61.77
2022-07-26T02:52:07.806Z,61.11
2022-07-26T02:54:34.460Z,61.46
2022-07-26T02:57:01.219Z,61.57
2022-07-26T02:59:28.082Z,61.79
2022-07-26T03:01:54.828Z,61.90
2022-07-26T03:04:21.573Z,61.83
2022-07-26T03:06:49.989Z,61.63
2022-07-26T03:09:16.801Z,61.74
2022-07-26T03:11:43.470Z,62.04
2022-07-26T03:14:10.589Z,61.99
2022-07-26T03:16:37.556Z,61.86
2022-07-26T03:19:04.226Z,61.51
2022-07-26T03:21:31.220Z,61.55
2022-07-26T03:23:59.219Z,61.28
2022-07-26T03:26:25.886Z,60.96
2022-07-26T03:28:53.091Z,60.65
2022-07-26T03:31:19.936Z,60.22
2022-07-26T03:33:46.693Z,60.13
2022-07-26T03:36:15.466Z,59.91
2022-07-26T03:38:42.633Z,59.85
2022-07-26T03:41:13.445Z,60.01
2022-07-26T03:43:55.680Z,60.25
2022-07-26T03:46:22.383Z,60.22
2022-07-26T03:48:49.259Z,60.34
2022-07-26T03:51:15.970Z,60.55
2022-07-26T03:53:42.635Z,60.79
2022-07-26T03:56:29.098Z,60.56
2022-07-26T03:58:55.935Z,60.45
2022-07-26T04:01:22.666Z,60.25
2022-07-26T04:03:49.366Z,60.27
2022-07-26T04:06:17.022Z,60.24
2022-07-26T04:08:44.371Z,60.39
2022-07-26T04:11:12.604Z,60.29
2022-07-26T04:13:39.400Z,60.24
2022-07-26T04:16:07.084Z,59.89
2022-07-26T04:18:34.002Z,59.68
2022-07-26T04:21:00.972Z,59.86
2022-07-26T04:23:27.799Z,59.80
2022-07-26T04:25:54.735Z,59.90
2022-07-26T04:28:23.210Z,59.64
2022-07-26T04:30:49.965Z,59.82
2022-07-26T04:33:16.659Z,59.90
2022-07-26T04:35:43.320Z,59.66
2022-07-26T04:38:10.073Z,60.05
2022-07-26T04:40:40.449Z,60.27
2022-07-26T04:43:08.604Z,60.15
2022-07-26T04:45:38.372Z,60.02
2022-07-26T04:48:06.545Z,60.18
2022-07-26T04:50:33.224Z,59.86
2022-07-26T04:53:04.991Z,60.18
2022-07-26T04:55:32.123Z,60.20
2022-07-26T04:57:58.817Z,60.05
2022-07-26T05:00:25.781Z,60.27
2022-07-26T05:02:57.234Z,60.07
2022-07-26T05:05:25.332Z,60.15
2022-07-26T05:07:54.339Z,60.02
2022-07-26T05:10:22.499Z,60.14
2022-07-26T05:12:49.854Z,60.21
2022-07-26T05:15:16.674Z,60.18
2022-07-26T05:17:44.060Z,60.06
2022-07-26T05:20:15.025Z,60.18
2022-07-26T05:22:42.137Z,60.46
2022-07-26T05:25:09.283Z,60.12
2022-07-26T05:27:35.961Z,60.05
2022-07-26T05:30:03.340Z,59.96
2022-07-26T05:32:30.050Z,59.85
2022-07-26T05:34:56.739Z,59.83
2022-07-26T05:37:24.854Z,59.68
2022-07-26T05:39:51.514Z,59.40
2022-07-26T05:42:18.423Z,59.51
2022-07-26T05:44:45.520Z,59.09
2022-07-26T05:47:13.069Z,58.92
2022-07-26T05:49:40.891Z,58.91
2022-07-26T05:52:07.846Z,58.99
2022-07-26T05:54:50.941Z,58.84
2022-07-26T05:57:18.206Z,58.83
2022-07-26T05:59:46.644Z,58.80
2022-07-26T06:02:13.926Z,58.96
2022-07-26T06:04:41.116Z,59.11
2022-07-26T06:07:08.056Z,59.13
2022-07-26T06:09:34.816Z,59.24
2022-07-26T06:12:03.019Z,59.32
2022-07-26T06:14:29.826Z,59.32
2022-07-26T06:16:56.772Z,59.30
2022-07-26T06:19:23.543Z,58.89
2022-07-26T06:21:50.391Z,58.72
2022-07-26T06:24:17.185Z,58.89
2022-07-26T06:26:44.541Z,58.50
2022-07-26T06:29:12.616Z,58.46
2022-07-26T06:31:39.353Z,58.67
2022-07-26T06:34:06.463Z,58.58
2022-07-26T06:36:36.633Z,58.69
2022-07-26T06:39:03.591Z,58.50
2022-07-26T06:41:30.331Z,58.30
2022-07-26T06:43:57.136Z,58.06
2022-07-26T06:46:25.413Z,58.15
2022-07-26T06:48:56.786Z,57.88
2022-07-26T06:51:24.351Z,57.78
2022-07-26T06:53:51.356Z,57.58
2022-07-26T06:56:18.627Z,57.52
2022-07-26T06:58:45.461Z,57.66
2022-07-26T07:01:12.308Z,57.55
2022-07-26T07:03:40.394Z,57.17
2022-07-26T07:06:07.285Z,57.17
2022-07-26T07:08:34.424Z,57.28
2022-07-26T07:11:01.941Z,57.54
2022-07-26T07:13:28.689Z,57.25
2022-07-26T07:15:55.310Z,57.37
2022-07-26T07:18:21.983Z,57.16
2022-07-26T07:20:49.992Z,57.00
2022-07-26T07:23:16.665Z,56.88
2022-07-26T07:25:44.912Z,56.92
2022-07-26T07:28:11.821Z,57.10
2022-07-26T07:30:38.486Z,57.51
2022-07-26T07:33:05.374Z,57.63
2022-07-26T07:35:32.952Z,58.40
2022-07-26T07:38:01.253Z,58.51
2022-07-26T07:40:30.054Z,58.62
2022-07-26T07:42:57.064Z,58.61
2022-07-26T07:45:23.986Z,58.51
2022-07-26T07:47:50.669Z,58.76
2022-07-26T07:50:17.438Z,58.93
2022-07-26T07:52:45.005Z,59.13
2022-07-26T07:55:36.609Z,59.52
2022-07-26T07:57:59.692Z,59.71
2022-07-26T08:00:27.033Z,59.70
2022-07-26T08:02:54.393Z,59.54
2022-07-26T08:05:21.605Z,59.85
2022-07-26T08:07:48.753Z,59.29
2022-07-26T08:10:17.171Z,59.43
2022-07-26T08:12:44.483Z,59.52
2022-07-26T08:15:12.329Z,59.81
2022-07-26T08:17:41.950Z,59.91
2022-07-26T08:20:15.822Z,59.59
2022-07-26T08:22:42.742Z,59.98
2022-07-26T08:25:10.171Z,59.73
2022-07-26T08:27:41.056Z,59.62
2022-07-26T08:30:09.150Z,60.01
2022-07-26T08:32:35.839Z,59.84
2022-07-26T08:35:17.307Z,59.43
2022-07-26T08:37:46.603Z,59.38
2022-07-26T08:40:13.598Z,59.46
2022-07-26T08:42:52.381Z,59.39
2022-07-26T08:45:23.011Z,59.52
2022-07-26T08:48:16.285Z,59.43
2022-07-26T08:50:40.130Z,59.16
2022-07-26T08:53:09.272Z,59.28
2022-07-26T08:56:04.221Z,59.12
2022-07-26T08:58:24.683Z,59.51
2022-07-26T09:01:04.586Z,59.33
2022-07-26T09:03:32.161Z,58.93
2022-07-26T09:06:11.483Z,58.51
2022-07-26T09:08:38.272Z,58.75
2022-07-26T09:11:26.950Z,58.91
2022-07-26T09:13:57.349Z,58.87
2022-07-26T09:16:24.417Z,58.70
2022-07-26T09:18:51.685Z,58.84
2022-07-26T09:21:29.120Z,58.64
2022-07-26T09:23:56.659Z,58.68
2022-07-26T09:26:25.675Z,58.48
2022-07-26T09:29:05.281Z,58.42
2022-07-26T09:31:32.541Z,58.34
2022-07-26T09:34:00.104Z,58.41
2022-07-26T09:36:27.848Z,58.16
2022-07-26T09:38:58.273Z,57.62
2022-07-26T09:41:30.288Z,57.81
2022-07-26T09:44:00.545Z,57.99
2022-07-26T09:46:29.879Z,58.30
2022-07-26T09:49:13.428Z,57.93
2022-07-26T09:51:41.508Z,57.66
2022-07-26T09:54:09.697Z,57.48
2022-07-26T09:56:45.300Z,57.00
2022-07-26T09:59:13.891Z,56.89
2022-07-26T10:01:42.215Z,56.73
2022-07-26T10:04:09.483Z,56.85
2022-07-26T10:06:36.421Z,56.76
2022-07-26T10:09:03.849Z,56.74
2022-07-26T10:11:44.398Z,56.90
2022-07-26T10:14:45.615Z,56.80
2022-07-26T10:17:31.510Z,56.94
2022-07-26T10:20:02.819Z,57.17
2022-07-26T10:22:34.186Z,57.07
2022-07-26T10:25:45.164Z,57.10
2022-07-26T10:28:23.912Z,56.95
2022-07-26T10:30:50.665Z,57.29
2022-07-26T10:33:22.525Z,57.37
2022-07-26T10:35:50.621Z,57.29
2022-07-26T10:38:24.347Z,57.27
2022-07-26T10:41:01.821Z,57.32
2022-07-26T10:43:40.782Z,57.60
2022-07-26T10:46:26.987Z,57.89
2022-07-26T10:48:58.906Z,58.04
2022-07-26T10:51:29.581Z,57.84
2022-07-26T10:54:00.046Z,58.12
2022-07-26T10:56:32.632Z,58.29
2022-07-26T10:59:00.080Z,58.57
2022-07-26T11:01:32.886Z,58.56
2022-07-26T11:03:59.862Z,58.51
2022-07-26T11:06:32.320Z,58.57
2022-07-26T11:09:09.535Z,58.87
2022-07-26T11:11:36.186Z,58.81
2022-07-26T11:14:08.008Z,58.54
2022-07-26T11:16:39.631Z,58.69
2022-07-26T11:19:15.477Z,58.94
2022-07-26T11:21:43.760Z,58.93
2022-07-26T11:24:11.141Z,59.08
2022-07-26T11:26:42.260Z,58.85
2022-07-26T11:29:09.117Z,59.29
2022-07-26T11:31:51.420Z,58.86
2022-07-26T11:34:26.568Z,58.51
2022-07-26T11:36:56.275Z,58.40
2022-07-26T11:39:24.118Z,58.57
2022-07-26T11:41:52.565Z,58.20
2022-07-26T11:44:21.139Z,58.51
2022-07-26T11:46:49.091Z,58.81
2022-07-26T11:49:17.975Z,59.03
2022-07-26T11:51:52.700Z,58.77
2022-07-26T11:54:21.682Z,58.66
2022-07-26T11:56:53.896Z,57.97
2022-07-26T11:59:21.313Z,58.20
2022-07-26T12:01:49.644Z,58.34
2022-07-26T12:04:21.570Z,57.77
2022-07-26T12:06:48.807Z,57.57
2022-07-26T12:09:30.553Z,57.24
2022-07-26T12:11:57.665Z,57.17
2022-07-26T12:14:28.445Z,57.32
2022-07-26T12:16:55.336Z,57.52
2022-07-26T12:19:29.925Z,57.31
2022-07-26T12:21:59.208Z,57.63
2022-07-26T12:24:43.216Z,57.14
2022-07-26T12:27:13.332Z,56.71
2022-07-26T12:29:41.809Z,55.92
2022-07-26T12:32:12.717Z,55.55
2022-07-26T12:34:41.193Z,54.68
2022-07-26T12:37:16.864Z,53.99
2022-07-26T12:40:07.338Z,54.57
2022-07-26T12:42:35.664Z,54.95
2022-07-26T12:45:03.820Z,54.88
2022-07-26T12:47:30.520Z,54.43
2022-07-26T12:49:57.286Z,54.74
2022-07-26T12:52:24.167Z,54.62
2022-07-26T12:54:53.355Z,53.75
2022-07-26T12:57:20.558Z,53.55
2022-07-26T12:59:48.323Z,53.76
2022-07-26T13:02:16.424Z,53.16
2022-07-26T13:04:43.301Z,53.24
2022-07-26T13:07:10.127Z,53.04
2022-07-26T13:09:36.918Z,52.71
2022-07-26T13:12:06.778Z,52.94
2022-07-26T13:14:35.147Z,53.10
2022-07-26T13:17:03.082Z,52.60
2022-07-26T13:19:31.020Z,53.11
2022-07-26T13:21:59.148Z,52.40
2022-07-26T13:24:27.943Z,52.38
2022-07-26T13:26:56.072Z,52.19
2022-07-26T13:29:24.176Z,52.34
2022-07-26T13:31:55.632Z,52.54
2022-07-26T13:34:26.190Z,52.78
2022-07-26T13:36:53.733Z,52.08
2022-07-26T13:39:20.459Z,51.71
2022-07-26T13:41:47.247Z,51.59
2022-07-26T13:44:15.005Z,52.08
2022-07-26T13:46:43.200Z,51.44
2022-07-26T13:49:10.013Z,51.63
2022-07-26T13:51:57.178Z,51.88
2022-07-26T13:54:26.226Z,51.40
2022-07-26T13:56:53.577Z,51.79
2022-07-26T13:59:20.750Z,51.95
2022-07-26T14:01:49.104Z,52.27
2022-07-26T14:04:16.487Z,52.00
2022-07-26T14:06:43.416Z,52.58
2022-07-26T14:09:11.190Z,52.73
2022-07-26T14:11:38.781Z,52.61
2022-07-26T14:14:05.967Z,52.54
2022-07-26T14:16:32.948Z,52.80
2022-07-26T14:19:01.429Z,52.67
2022-07-26T14:21:29.439Z,53.37
2022-07-26T14:24:10.824Z,53.34
2022-07-26T14:26:37.816Z,53.59
2022-07-26T14:29:04.653Z,53.67
2022-07-26T14:31:32.436Z,53.93
2022-07-26T14:33:59.295Z,53.76
2022-07-26T14:36:27.451Z,53.95
2022-07-26T14:38:55.518Z,54.08
2022-07-26T14:41:22.714Z,53.95
2022-07-26T14:43:54.280Z,54.17
2022-07-26T14:46:22.736Z,54.06
2022-07-26T14:48:54.510Z,54.11
2022-07-26T14:51:22.131Z,54.15
2022-07-26T14:53:50.170Z,54.11
2022-07-26T14:56:16.897Z,54.49
2022-07-26T14:58:43.578Z,54.70
2022-07-26T15:01:10.835Z,54.37
2022-07-26T15:03:37.661Z,54.42
2022-07-26T15:06:04.998Z,54.50
2022-07-26T15:08:31.637Z,54.55
2022-07-26T15:10:59.943Z,54.83
2022-07-26T15:13:26.665Z,55.03
2022-07-26T15:15:53.363Z,55.16
2022-07-26T15:18:20.143Z,55.13
2022-07-26T15:20:47.049Z,54.86
2022-07-26T15:23:15.224Z,54.43
2022-07-26T15:25:41.956Z,54.17
2022-07-26T15:28:10.084Z,54.18
2022-07-26T15:30:37.257Z,54.33
2022-07-26T15:33:04.004Z,54.38
2022-07-26T15:35:30.940Z,54.32
2022-07-26T15:37:57.765Z,53.92
2022-07-26T15:40:25.206Z,53.88
2022-07-26T15:42:53.010Z,53.76
2022-07-26T15:45:21.923Z,53.19
2022-07-26T15:48:03.278Z,53.04
2022-07-26T15:50:35.464Z,52.53
2022-07-26T15:53:02.252Z,52.22
2022-07-26T15:55:28.919Z,52.64
2022-07-26T15:57:55.788Z,52.89
2022-07-26T16:00:23.855Z,52.76
2022-07-26T16:02:50.801Z,52.77
2022-07-26T16:05:17.716Z,52.67
2022-07-26T16:07:45.388Z,52.02
2022-07-26T16:10:13.793Z,52.03
2022-07-26T16:12:41.032Z,52.22
2022-07-26T16:15:10.128Z,52.55
2022-07-26T16:17:38.765Z,52.47
2022-07-26T16:20:07.300Z,52.42
2022-07-26T16:22:35.005Z,52.82
2022-07-26T16:25:01.785Z,52.57
2022-07-26T16:27:28.456Z,52.99
2022-07-26T16:29:55.102Z,53.25
2022-07-26T16:32:22.052Z,53.55
2022-07-26T16:34:50.053Z,53.12
2022-07-26T16:37:16.714Z,53.08
2022-07-26T16:39:43.548Z,53.04
2022-07-26T16:42:10.164Z,53.01
2022-07-26T16:44:36.855Z,52.98
2022-07-26T16:47:03.813Z,52.77
2022-07-26T16:49:30.629Z,52.70
2022-07-26T16:51:58.740Z,52.67
2022-07-26T16:54:25.433Z,52.11
2022-07-26T16:56:52.109Z,52.36
2022-07-26T16:59:19.003Z,52.77
2022-07-26T17:01:45.816Z,52.71
2022-07-26T17:04:12.576Z,53.11
2022-07-26T17:06:39.286Z,53.38
2022-07-26T17:09:07.441Z,53.20
2022-07-26T17:11:41.981Z,53.68
2022-07-26T17:14:08.957Z,53.47
2022-07-26T17:16:35.717Z,53.84
2022-07-26T17:19:02.438Z,53.78
2022-07-26T17:21:29.117Z,54.31
2022-07-26T17:23:55.921Z,53.96
2022-07-26T17:26:24.328Z,54.00
2022-07-26T17:28:50.993Z,54.37
2022-07-26T17:31:17.664Z,54.50
2022-07-26T17:33:44.461Z,54.62
2022-07-26T17:36:22.879Z,54.73
2022-07-26T17:38:49.946Z,54.54
2022-07-26T17:41:18.246Z,54.59
2022-07-26T17:43:47.193Z,54.63
2022-07-26T17:46:14.056Z,55.04
2022-07-26T17:48:41.743Z,55.03
2022-07-26T17:51:08.527Z,55.07
2022-07-26T17:53:35.224Z,54.96
2022-07-26T17:56:02.082Z,54.65
2022-07-26T17:58:29.752Z,54.38
2022-07-26T18:00:57.796Z,54.22
2022-07-26T18:03:24.539Z,54.31
2022-07-26T18:05:51.532Z,54.57
2022-07-26T18:08:18.282Z,54.65
2022-07-26T18:10:50.523Z,54.67
2022-07-26T18:13:17.885Z,55.14
2022-07-26T18:15:45.097Z,55.75
2022-07-26T18:18:14.593Z,55.87
2022-07-26T18:20:41.530Z,55.62
2022-07-26T18:23:08.294Z,55.54
2022-07-26T18:25:35.286Z,55.25
2022-07-26T18:28:06.899Z,55.10
2022-07-26T18:30:34.352Z,55.07
2022-07-26T18:33:01.274Z,55.21
2022-07-26T18:35:29.308Z,55.49
2022-07-26T18:37:56.111Z,55.21
2022-07-26T18:40:25.088Z,55.12
2022-07-26T18:42:52.756Z,54.88
2022-07-26T18:45:19.523Z,55.21
2022-07-26T18:47:46.712Z,54.97
2022-07-26T18:50:16.973Z,54.96
2022-07-26T18:52:46.500Z,54.76
2022-07-26T18:55:14.848Z,54.70
2022-07-26T18:57:43.693Z,54.72
2022-07-26T19:00:12.415Z,54.54
2022-07-26T19:02:39.126Z,54.94
2022-07-26T19:05:06.434Z,54.57
2022-07-26T19:07:37.557Z,54.89
2022-07-26T19:10:06.869Z,55.14
2022-07-26T19:12:33.847Z,54.94
2022-07-26T19:15:00.960Z,55.13
2022-07-26T19:17:30.257Z,55.18
2022-07-26T19:19:59.996Z,55.07
2022-07-26T19:22:26.852Z,55.05
2022-07-26T19:24:53.556Z,55.18
2022-07-26T19:27:21.649Z,55.55
2022-07-26T19:29:48.776Z,55.40
2022-07-26T19:32:15.847Z,55.78
2022-07-26T19:34:42.621Z,55.59
2022-07-26T19:37:09.442Z,55.82
2022-07-26T19:39:36.120Z,55.90
2022-07-26T19:42:03.137Z,56.48
2022-07-26T19:44:31.110Z,56.31
2022-07-26T19:46:58.190Z,56.00
2022-07-26T19:49:25.163Z,55.99
2022-07-26T19:51:51.978Z,55.94
2022-07-26T19:54:18.775Z,55.94
2022-07-26T19:56:45.635Z,56.00
2022-07-26T19:59:19.547Z,55.68
2022-07-26T20:01:52.854Z,55.88
2022-07-26T20:04:19.745Z,55.82
2022-07-26T20:06:46.485Z,56.00
2022-07-26T20:09:13.939Z,56.14
2022-07-26T20:11:41.276Z,56.45
2022-07-26T20:14:07.957Z,56.59
2022-07-26T20:16:34.756Z,56.46
2022-07-26T20:19:03.567Z,56.38
2022-07-26T20:21:30.178Z,56.25
2022-07-26T20:23:56.874Z,56.50
2022-07-26T20:26:23.907Z,56.29
2022-07-26T20:28:51.033Z,56.47
2022-07-26T20:31:17.893Z,57.02
2022-07-26T20:33:44.634Z,56.85
2022-07-26T20:36:13.419Z,56.39
2022-07-26T20:38:39.897Z,56.41
2022-07-26T20:41:06.668Z,56.76
2022-07-26T20:43:33.766Z,57.08
2022-07-26T20:46:02.096Z,57.50
2022-07-26T20:48:28.933Z,57.40
2022-07-26T20:50:55.594Z,57.98
2022-07-26T20:53:23.606Z,58.10
2022-07-26T20:55:50.388Z,57.92
2022-07-26T20:58:17.962Z,58.16
2022-07-26T21:00:44.622Z,58.55
2022-07-26T21:03:13.683Z,58.88
2022-07-26T21:05:40.329Z,59.17
2022-07-26T21:08:06.998Z,59.08
2022-07-26T21:10:35.308Z,59.63
2022-07-26T21:13:02.029Z,59.77
2022-07-26T21:15:29.068Z,60.18
2022-07-26T21:17:56.086Z,60.20
2022-07-26T21:20:23.328Z,60.33
2022-07-26T21:23:00.130Z,60.13
2022-07-26T21:25:36.349Z,60.32
2022-07-26T21:28:03.154Z,60.59
2022-07-26T21:30:29.803Z,60.32
2022-07-26T21:32:56.515Z,59.94
2022-07-26T21:35:23.233Z,59.81
2022-07-26T21:37:50.011Z,59.58
2022-07-26T21:40:16.698Z,59.15
2022-07-26T21:42:44.719Z,59.08
2022-07-26T21:45:11.534Z,58.74
2022-07-26T21:47:38.191Z,58.60
2022-07-26T21:50:05.570Z,58.33
2022-07-26T21:52:32.250Z,58.32
2022-07-26T21:54:58.901Z,58.21
2022-07-26T21:57:25.568Z,58.09
2022-07-26T21:59:53.539Z,58.26
2022-07-26T22:02:21.791Z,58.23
2022-07-26T22:04:48.644Z,58.24
2022-07-26T22:07:15.524Z,58.55
2022-07-26T22:09:42.260Z,58.05
2022-07-26T22:12:12.340Z,57.83
2022-07-26T22:14:39.112Z,57.79
2022-07-26T22:17:07.122Z,57.88
2022-07-26T22:19:33.825Z,57.58
2022-07-26T22:22:02.594Z,57.21
2022-07-26T22:24:29.325Z,57.40
2022-07-26T22:26:55.966Z,57.85
2022-07-26T22:29:22.634Z,57.56
2022-07-26T22:31:49.342Z,57.48
2022-07-26T22:34:17.382Z,57.39
2022-07-26T22:36:45.606Z,57.14
2022-07-26T22:39:12.955Z,57.09
2022-07-26T22:42:05.152Z,57.25
2022-07-26T22:44:26.516Z,57.27
2022-07-26T22:46:54.546Z,57.35
2022-07-26T22:49:22.671Z,57.43
2022-07-26T22:51:49.364Z,57.27
2022-07-26T22:54:16.059Z,57.33
2022-07-26T22:56:42.821Z,57.48
2022-07-26T22:59:09.827Z,57.71
2022-07-26T23:01:36.762Z,57.93
2022-07-26T23:04:04.985Z,57.99
2022-07-26T23:06:34.316Z,58.01
2022-07-26T23:09:00.984Z,57.99
2022-07-26T23:11:27.765Z,58.10
2022-07-26T23:13:59.058Z,58.03
2022-07-26T23:16:26.130Z,57.84
2022-07-26T23:18:52.837Z,57.71
2022-07-26T23:21:19.567Z,57.81
2022-07-26T23:23:47.618Z,58.23
2022-07-26T23:26:14.248Z,58.41
2022-07-26T23:28:40.972Z,57.98
2022-07-26T23:31:09.379Z,58.39
2022-07-26T23:33:50.515Z,58.44
2022-07-26T23:36:20.390Z,58.31
2022-07-26T23:38:48.409Z,58.09
2022-07-26T23:41:15.070Z,57.91
2022-07-26T23:43:41.757Z,58.07
2022-07-26T23:46:08.511Z,58.08
2022-07-26T23:48:35.248Z,58.16
2022-07-26T23:51:01.930Z,58.06
2022-07-26T23:53:28.632Z,57.93
2022-07-26T23:55:56.617Z,57.57
2022-07-26T23:58:23.275Z,57.72
